sensor_id;sensor_type;location;lat;lon;timestamp;pressure;altitude;pressure_sealevel;temperature
67501;BMP180;54349;52.528;19.760;2022-11-14T00:00:56;101924.80;;;25.50
67501;BMP180;54349;52.528;19.760;2022-11-14T00:03:44;101920.00;;;25.50
67501;BMP180;54349;52.528;19.760;2022-11-14T00:06:31;101923.80;;;25.50
67501;BMP180;54349;52.528;19.760;2022-11-14T00:09:17;101921.20;;;25.50
67501;BMP180;54349;52.528;19.760;2022-11-14T00:12:05;101918.20;;;25.50
67501;BMP180;54349;52.528;19.760;2022-11-14T00:14:52;101913.20;;;25.54
67501;BMP180;54349;52.528;19.760;2022-11-14T00:17:42;101913.40;;;25.50
67501;BMP180;54349;52.528;19.760;2022-11-14T00:20:30;101914.60;;;25.50
67501;BMP180;54349;52.528;19.760;2022-11-14T00:23:19;101919.60;;;25.50
67501;BMP180;54349;52.528;19.760;2022-11-14T00:26:06;101917.60;;;25.50
67501;BMP180;54349;52.528;19.760;2022-11-14T00:28:54;101908.00;;;25.50
67501;BMP180;54349;52.528;19.760;2022-11-14T00:31:41;101903.00;;;25.50
67501;BMP180;54349;52.528;19.760;2022-11-14T00:34:28;101910.20;;;25.50
67501;BMP180;54349;52.528;19.760;2022-11-14T00:37:15;101908.80;;;25.50
67501;BMP180;54349;52.528;19.760;2022-11-14T00:40:03;101905.80;;;25.50
67501;BMP180;54349;52.528;19.760;2022-11-14T00:42:50;101902.80;;;25.50
67501;BMP180;54349;52.528;19.760;2022-11-14T00:45:37;101901.40;;;25.50
67501;BMP180;54349;52.528;19.760;2022-11-14T00:48:24;101898.60;;;25.50
67501;BMP180;54349;52.528;19.760;2022-11-14T00:51:11;101897.60;;;25.40
67501;BMP180;54349;52.528;19.760;2022-11-14T00:53:58;101894.40;;;25.34
67501;BMP180;54349;52.528;19.760;2022-11-14T00:56:45;101892.40;;;25.30
67501;BMP180;54349;52.528;19.760;2022-11-14T00:59:32;101893.80;;;25.20
67501;BMP180;54349;52.528;19.760;2022-11-14T01:02:19;101891.40;;;25.10
67501;BMP180;54349;52.528;19.760;2022-11-14T01:05:06;101886.40;;;25.10
67501;BMP180;54349;52.528;19.760;2022-11-14T01:07:53;101885.00;;;25.00
67501;BMP180;54349;52.528;19.760;2022-11-14T01:10:46;101882.40;;;24.90
67501;BMP180;54349;52.528;19.760;2022-11-14T01:13:33;101879.20;;;24.88
67501;BMP180;54349;52.528;19.760;2022-11-14T01:16:20;101873.20;;;24.80
67501;BMP180;54349;52.528;19.760;2022-11-14T01:19:07;101874.20;;;24.80
67501;BMP180;54349;52.528;19.760;2022-11-14T01:21:55;101872.40;;;24.70
67501;BMP180;54349;52.528;19.760;2022-11-14T01:24:42;101859.80;;;24.66
67501;BMP180;54349;52.528;19.760;2022-11-14T01:27:30;101856.00;;;24.52
67501;BMP180;54349;52.528;19.760;2022-11-14T01:30:17;101855.40;;;24.42
67501;BMP180;54349;52.528;19.760;2022-11-14T01:33:05;101847.20;;;24.30
67501;BMP180;54349;52.528;19.760;2022-11-14T01:35:52;101848.80;;;24.20
67501;BMP180;54349;52.528;19.760;2022-11-14T01:38:39;101845.20;;;24.10
67501;BMP180;54349;52.528;19.760;2022-11-14T01:41:26;101845.40;;;24.00
67501;BMP180;54349;52.528;19.760;2022-11-14T01:44:39;101843.40;;;23.90
67501;BMP180;54349;52.528;19.760;2022-11-14T01:47:31;101835.00;;;23.80
67501;BMP180;54349;52.528;19.760;2022-11-14T01:50:18;101829.40;;;23.70
67501;BMP180;54349;52.528;19.760;2022-11-14T01:53:05;101825.20;;;23.60
67501;BMP180;54349;52.528;19.760;2022-11-14T01:55:55;101814.80;;;23.58
67501;BMP180;54349;52.528;19.760;2022-11-14T01:58:51;101812.00;;;23.50
67501;BMP180;54349;52.528;19.760;2022-11-14T02:01:45;101814.80;;;23.40
67501;BMP180;54349;52.528;19.760;2022-11-14T02:04:41;101808.40;;;23.30
67501;BMP180;54349;52.528;19.760;2022-11-14T02:07:33;101808.00;;;23.20
67501;BMP180;54349;52.528;19.760;2022-11-14T02:10:21;101806.80;;;23.10
67501;BMP180;54349;52.528;19.760;2022-11-14T02:13:08;101805.80;;;23.10
67501;BMP180;54349;52.528;19.760;2022-11-14T02:15:56;101805.00;;;23.00
67501;BMP180;54349;52.528;19.760;2022-11-14T02:18:42;101801.40;;;22.90
67501;BMP180;54349;52.528;19.760;2022-11-14T02:21:29;101798.40;;;22.90
67501;BMP180;54349;52.528;19.760;2022-11-14T02:24:16;101799.20;;;22.90
67501;BMP180;54349;52.528;19.760;2022-11-14T02:27:04;101792.40;;;22.80
67501;BMP180;54349;52.528;19.760;2022-11-14T02:29:52;101791.80;;;22.80
67501;BMP180;54349;52.528;19.760;2022-11-14T02:32:39;101788.80;;;22.72
67501;BMP180;54349;52.528;19.760;2022-11-14T02:35:46;101782.60;;;22.70
67501;BMP180;54349;52.528;19.760;2022-11-14T02:38:34;101780.00;;;22.70
67501;BMP180;54349;52.528;19.760;2022-11-14T02:41:21;101781.00;;;22.64
67501;BMP180;54349;52.528;19.760;2022-11-14T02:44:08;101776.00;;;22.60
67501;BMP180;54349;52.528;19.760;2022-11-14T02:46:55;101777.40;;;22.60
67501;BMP180;54349;52.528;19.760;2022-11-14T02:49:42;101780.20;;;22.54
67501;BMP180;54349;52.528;19.760;2022-11-14T02:52:35;101772.00;;;22.50
67501;BMP180;54349;52.528;19.760;2022-11-14T02:55:22;101774.00;;;22.50
67501;BMP180;54349;52.528;19.760;2022-11-14T02:58:09;101773.40;;;22.42
67501;BMP180;54349;52.528;19.760;2022-11-14T03:00:56;101770.60;;;22.40
67501;BMP180;54349;52.528;19.760;2022-11-14T03:04:09;101762.20;;;22.30
67501;BMP180;54349;52.528;19.760;2022-11-14T03:06:56;101763.40;;;22.30
67501;BMP180;54349;52.528;19.760;2022-11-14T03:09:44;101758.20;;;22.22
67501;BMP180;54349;52.528;19.760;2022-11-14T03:12:30;101761.00;;;22.20
67501;BMP180;54349;52.528;19.760;2022-11-14T03:15:17;101760.40;;;22.20
67501;BMP180;54349;52.528;19.760;2022-11-14T03:18:04;101749.80;;;22.10
67501;BMP180;54349;52.528;19.760;2022-11-14T03:20:51;101754.80;;;22.10
67501;BMP180;54349;52.528;19.760;2022-11-14T03:23:39;101757.80;;;22.10
67501;BMP180;54349;52.528;19.760;2022-11-14T03:26:25;101755.20;;;22.00
67501;BMP180;54349;52.528;19.760;2022-11-14T03:29:12;101751.40;;;21.90
67501;BMP180;54349;52.528;19.760;2022-11-14T03:31:59;101746.00;;;21.90
67501;BMP180;54349;52.528;19.760;2022-11-14T03:34:46;101739.00;;;21.80
67501;BMP180;54349;52.528;19.760;2022-11-14T03:37:33;101739.80;;;21.76
67501;BMP180;54349;52.528;19.760;2022-11-14T03:40:19;101738.60;;;21.70
67501;BMP180;54349;52.528;19.760;2022-11-14T03:43:06;101740.80;;;21.60
67501;BMP180;54349;52.528;19.760;2022-11-14T03:45:57;101744.80;;;21.60
67501;BMP180;54349;52.528;19.760;2022-11-14T03:48:45;101743.60;;;21.50
67501;BMP180;54349;52.528;19.760;2022-11-14T03:51:32;101738.40;;;21.50
67501;BMP180;54349;52.528;19.760;2022-11-14T03:54:19;101728.20;;;21.48
67501;BMP180;54349;52.528;19.760;2022-11-14T03:57:06;101729.40;;;21.40
67501;BMP180;54349;52.528;19.760;2022-11-14T03:59:53;101725.00;;;21.40
67501;BMP180;54349;52.528;19.760;2022-11-14T04:02:41;101721.80;;;21.40
67501;BMP180;54349;52.528;19.760;2022-11-14T04:05:27;101718.60;;;21.38
67501;BMP180;54349;52.528;19.760;2022-11-14T04:08:14;101717.60;;;21.30
67501;BMP180;54349;52.528;19.760;2022-11-14T04:11:00;101719.40;;;21.30
67501;BMP180;54349;52.528;19.760;2022-11-14T04:13:47;101716.60;;;21.30
67501;BMP180;54349;52.528;19.760;2022-11-14T04:16:34;101704.20;;;21.30
67501;BMP180;54349;52.528;19.760;2022-11-14T04:19:21;101708.00;;;21.30
67501;BMP180;54349;52.528;19.760;2022-11-14T04:22:08;101703.40;;;21.38
67501;BMP180;54349;52.528;19.760;2022-11-14T04:24:54;101703.00;;;21.40
67501;BMP180;54349;52.528;19.760;2022-11-14T04:27:42;101700.20;;;21.40
67501;BMP180;54349;52.528;19.760;2022-11-14T04:30:29;101701.60;;;21.46
67501;BMP180;54349;52.528;19.760;2022-11-14T04:33:20;101690.60;;;21.50
67501;BMP180;54349;52.528;19.760;2022-11-14T04:36:08;101688.60;;;21.50
67501;BMP180;54349;52.528;19.760;2022-11-14T04:38:55;101684.80;;;21.46
67501;BMP180;54349;52.528;19.760;2022-11-14T04:41:44;101683.00;;;21.40
67501;BMP180;54349;52.528;19.760;2022-11-14T04:44:31;101681.40;;;21.30
67501;BMP180;54349;52.528;19.760;2022-11-14T04:47:17;101682.00;;;21.30
67501;BMP180;54349;52.528;19.760;2022-11-14T04:50:05;101687.00;;;21.20
67501;BMP180;54349;52.528;19.760;2022-11-14T04:52:52;101691.20;;;21.20
67501;BMP180;54349;52.528;19.760;2022-11-14T04:55:39;101691.40;;;21.30
67501;BMP180;54349;52.528;19.760;2022-11-14T04:58:26;101687.40;;;21.22
67501;BMP180;54349;52.528;19.760;2022-11-14T05:01:14;101676.60;;;21.20
67501;BMP180;54349;52.528;19.760;2022-11-14T05:04:01;101680.80;;;21.20
67501;BMP180;54349;52.528;19.760;2022-11-14T05:06:48;101679.20;;;21.20
67501;BMP180;54349;52.528;19.760;2022-11-14T05:09:35;101679.40;;;21.20
67501;BMP180;54349;52.528;19.760;2022-11-14T05:12:22;101676.60;;;21.20
67501;BMP180;54349;52.528;19.760;2022-11-14T05:15:09;101675.20;;;21.14
67501;BMP180;54349;52.528;19.760;2022-11-14T05:17:56;101676.80;;;21.10
67501;BMP180;54349;52.528;19.760;2022-11-14T05:20:44;101675.00;;;21.10
67501;BMP180;54349;52.528;19.760;2022-11-14T05:23:32;101675.80;;;21.10
67501;BMP180;54349;52.528;19.760;2022-11-14T05:26:18;101678.20;;;21.10
67501;BMP180;54349;52.528;19.760;2022-11-14T05:29:06;101673.60;;;21.10
67501;BMP180;54349;52.528;19.760;2022-11-14T05:31:53;101683.60;;;21.30
67501;BMP180;54349;52.528;19.760;2022-11-14T05:34:39;101686.20;;;21.40
67501;BMP180;54349;52.528;19.760;2022-11-14T05:37:26;101687.60;;;21.44
67501;BMP180;54349;52.528;19.760;2022-11-14T05:40:14;101685.60;;;21.50
67501;BMP180;54349;52.528;19.760;2022-11-14T05:43:02;101688.80;;;21.60
67501;BMP180;54349;52.528;19.760;2022-11-14T05:45:49;101684.60;;;21.70
67501;BMP180;54349;52.528;19.760;2022-11-14T05:48:37;101686.80;;;21.74
67501;BMP180;54349;52.528;19.760;2022-11-14T05:51:24;101680.60;;;21.80
67501;BMP180;54349;52.528;19.760;2022-11-14T05:54:11;101684.80;;;21.90
67501;BMP180;54349;52.528;19.760;2022-11-14T05:56:58;101685.80;;;21.80
67501;BMP180;54349;52.528;19.760;2022-11-14T05:59:45;101682.80;;;21.72
67501;BMP180;54349;52.528;19.760;2022-11-14T06:02:31;101685.20;;;21.70
67501;BMP180;54349;52.528;19.760;2022-11-14T06:05:20;101683.60;;;21.64
67501;BMP180;54349;52.528;19.760;2022-11-14T06:08:08;101686.60;;;21.58
67501;BMP180;54349;52.528;19.760;2022-11-14T06:10:56;101684.80;;;21.50
67501;BMP180;54349;52.528;19.760;2022-11-14T06:13:47;101688.60;;;21.50
67501;BMP180;54349;52.528;19.760;2022-11-14T06:16:34;101682.60;;;21.40
67501;BMP180;54349;52.528;19.760;2022-11-14T06:19:20;101683.80;;;21.40
67501;BMP180;54349;52.528;19.760;2022-11-14T06:22:07;101684.00;;;21.40
67501;BMP180;54349;52.528;19.760;2022-11-14T06:24:54;101691.20;;;21.40
67501;BMP180;54349;52.528;19.760;2022-11-14T06:27:43;101696.60;;;21.40
67501;BMP180;54349;52.528;19.760;2022-11-14T06:30:30;101689.00;;;21.40
67501;BMP180;54349;52.528;19.760;2022-11-14T06:33:17;101693.00;;;21.30
67501;BMP180;54349;52.528;19.760;2022-11-14T06:36:07;101700.40;;;21.28
67501;BMP180;54349;52.528;19.760;2022-11-14T06:38:54;101708.40;;;21.20
67501;BMP180;54349;52.528;19.760;2022-11-14T06:41:40;101705.80;;;21.20
67501;BMP180;54349;52.528;19.760;2022-11-14T06:44:27;101708.40;;;21.26
67501;BMP180;54349;52.528;19.760;2022-11-14T06:47:16;101711.20;;;21.40
67501;BMP180;54349;52.528;19.760;2022-11-14T06:50:04;101703.20;;;21.48
67501;BMP180;54349;52.528;19.760;2022-11-14T06:52:51;101702.40;;;21.50
67501;BMP180;54349;52.528;19.760;2022-11-14T06:55:38;101703.00;;;21.52
67501;BMP180;54349;52.528;19.760;2022-11-14T06:58:32;101697.40;;;21.60
67501;BMP180;54349;52.528;19.760;2022-11-14T07:01:23;101702.20;;;21.70
67501;BMP180;54349;52.528;19.760;2022-11-14T07:04:11;101701.40;;;21.80
67501;BMP180;54349;52.528;19.760;2022-11-14T07:06:58;101702.40;;;21.90
67501;BMP180;54349;52.528;19.760;2022-11-14T07:09:46;101705.40;;;22.06
67501;BMP180;54349;52.528;19.760;2022-11-14T07:12:33;101713.00;;;22.20
67501;BMP180;54349;52.528;19.760;2022-11-14T07:15:20;101712.40;;;22.30
67501;BMP180;54349;52.528;19.760;2022-11-14T07:18:07;101711.80;;;22.40
67501;BMP180;54349;52.528;19.760;2022-11-14T07:21:02;101712.40;;;22.48
67501;BMP180;54349;52.528;19.760;2022-11-14T07:23:49;101719.20;;;22.50
67501;BMP180;54349;52.528;19.760;2022-11-14T07:26:36;101721.20;;;22.60
67501;BMP180;54349;52.528;19.760;2022-11-14T07:29:23;101716.60;;;22.66
67501;BMP180;54349;52.528;19.760;2022-11-14T07:32:11;101713.40;;;22.70
67501;BMP180;54349;52.528;19.760;2022-11-14T07:34:57;101716.00;;;22.70
67501;BMP180;54349;52.528;19.760;2022-11-14T07:37:49;101716.60;;;22.76
67501;BMP180;54349;52.528;19.760;2022-11-14T07:40:36;101710.40;;;22.80
67501;BMP180;54349;52.528;19.760;2022-11-14T07:43:24;101713.00;;;22.80
67501;BMP180;54349;52.528;19.760;2022-11-14T07:46:17;101708.40;;;22.80
67501;BMP180;54349;52.528;19.760;2022-11-14T07:49:04;101703.00;;;22.86
67501;BMP180;54349;52.528;19.760;2022-11-14T07:51:50;101704.00;;;22.90
67501;BMP180;54349;52.528;19.760;2022-11-14T07:54:37;101698.60;;;22.90
67501;BMP180;54349;52.528;19.760;2022-11-14T07:57:24;101698.20;;;22.98
67501;BMP180;54349;52.528;19.760;2022-11-14T08:00:13;101699.20;;;23.00
67501;BMP180;54349;52.528;19.760;2022-11-14T08:03:01;101700.20;;;23.00
67501;BMP180;54349;52.528;19.760;2022-11-14T08:05:47;101697.40;;;23.08
67501;BMP180;54349;52.528;19.760;2022-11-14T08:08:35;101691.60;;;23.10
67501;BMP180;54349;52.528;19.760;2022-11-14T08:11:22;101686.80;;;23.10
67501;BMP180;54349;52.528;19.760;2022-11-14T08:14:28;101687.40;;;23.10
67501;BMP180;54349;52.528;19.760;2022-11-14T08:17:15;101685.40;;;23.10
67501;BMP180;54349;52.528;19.760;2022-11-14T08:20:05;101672.20;;;23.20
67501;BMP180;54349;52.528;19.760;2022-11-14T08:23:04;101674.20;;;23.20
67501;BMP180;54349;52.528;19.760;2022-11-14T08:25:52;101672.00;;;23.20
67501;BMP180;54349;52.528;19.760;2022-11-14T08:28:39;101671.40;;;23.30
67501;BMP180;54349;52.528;19.760;2022-11-14T08:31:27;101661.60;;;23.40
67501;BMP180;54349;52.528;19.760;2022-11-14T08:34:14;101655.00;;;23.60
67501;BMP180;54349;52.528;19.760;2022-11-14T08:37:02;101660.20;;;23.70
67501;BMP180;54349;52.528;19.760;2022-11-14T08:39:49;101664.60;;;23.86
67501;BMP180;54349;52.528;19.760;2022-11-14T08:42:36;101658.80;;;23.98
67501;BMP180;54349;52.528;19.760;2022-11-14T08:45:23;101655.60;;;24.10
67501;BMP180;54349;52.528;19.760;2022-11-14T08:48:09;101658.80;;;24.20
67501;BMP180;54349;52.528;19.760;2022-11-14T08:51:05;101648.80;;;24.30
67501;BMP180;54349;52.528;19.760;2022-11-14T08:53:51;101648.40;;;24.30
67501;BMP180;54349;52.528;19.760;2022-11-14T08:56:38;101638.60;;;24.30
67501;BMP180;54349;52.528;19.760;2022-11-14T08:59:25;101648.00;;;24.40
67501;BMP180;54349;52.528;19.760;2022-11-14T09:02:13;101648.00;;;24.40
67501;BMP180;54349;52.528;19.760;2022-11-14T09:04:59;101648.00;;;24.40
67501;BMP180;54349;52.528;19.760;2022-11-14T09:07:46;101651.80;;;24.50
67501;BMP180;54349;52.528;19.760;2022-11-14T09:10:34;101654.80;;;24.60
67501;BMP180;54349;52.528;19.760;2022-11-14T09:13:20;101654.20;;;24.70
67501;BMP180;54349;52.528;19.760;2022-11-14T09:16:08;101648.20;;;24.80
67501;BMP180;54349;52.528;19.760;2022-11-14T09:18:55;101654.80;;;24.80
67501;BMP180;54349;52.528;19.760;2022-11-14T09:21:42;101654.00;;;24.90
67501;BMP180;54349;52.528;19.760;2022-11-14T09:24:28;101655.80;;;25.00
67501;BMP180;54349;52.528;19.760;2022-11-14T09:27:15;101652.20;;;25.00
67501;BMP180;54349;52.528;19.760;2022-11-14T09:30:04;101653.60;;;25.00
67501;BMP180;54349;52.528;19.760;2022-11-14T09:32:51;101658.80;;;25.00
67501;BMP180;54349;52.528;19.760;2022-11-14T09:35:38;101651.40;;;25.10
67501;BMP180;54349;52.528;19.760;2022-11-14T09:38:26;101646.00;;;25.10
67501;BMP180;54349;52.528;19.760;2022-11-14T09:41:23;101644.40;;;25.20
67501;BMP180;54349;52.528;19.760;2022-11-14T09:44:35;101639.20;;;25.10
67501;BMP180;54349;52.528;19.760;2022-11-14T09:50:33;101632.80;;;24.80
67501;BMP180;54349;52.528;19.760;2022-11-14T09:53:46;101629.80;;;24.70
67501;BMP180;54349;52.528;19.760;2022-11-14T09:56:33;101626.00;;;24.60
67501;BMP180;54349;52.528;19.760;2022-11-14T09:59:20;101622.40;;;24.60
67501;BMP180;54349;52.528;19.760;2022-11-14T10:12:06;101611.40;;;24.40
67501;BMP180;54349;52.528;19.760;2022-11-14T10:15:36;101608.80;;;24.32
67501;BMP180;54349;52.528;19.760;2022-11-14T10:21:52;101602.60;;;24.30
67501;BMP180;54349;52.528;19.760;2022-11-14T10:31:46;101595.80;;;24.20
67501;BMP180;54349;52.528;19.760;2022-11-14T10:35:03;101593.40;;;24.20
67501;BMP180;54349;52.528;19.760;2022-11-14T10:41:04;101581.40;;;24.20
67501;BMP180;54349;52.528;19.760;2022-11-14T10:43:54;101581.80;;;24.20
67501;BMP180;54349;52.528;19.760;2022-11-14T10:46:55;101576.60;;;24.20
67501;BMP180;54349;52.528;19.760;2022-11-14T10:49:45;101567.80;;;24.20
67501;BMP180;54349;52.528;19.760;2022-11-14T10:52:40;101572.60;;;24.20
67501;BMP180;54349;52.528;19.760;2022-11-14T10:55:28;101564.80;;;24.20
67501;BMP180;54349;52.528;19.760;2022-11-14T10:58:35;101559.40;;;24.20
67501;BMP180;54349;52.528;19.760;2022-11-14T11:01:40;101548.00;;;24.10
67501;BMP180;54349;52.528;19.760;2022-11-14T11:04:39;101549.60;;;24.10
67501;BMP180;54349;52.528;19.760;2022-11-14T11:07:27;101545.40;;;24.10
67501;BMP180;54349;52.528;19.760;2022-11-14T11:10:39;101541.60;;;24.04
67501;BMP180;54349;52.528;19.760;2022-11-14T11:13:55;101542.40;;;24.00
67501;BMP180;54349;52.528;19.760;2022-11-14T11:16:45;101539.60;;;24.00
67501;BMP180;54349;52.528;19.760;2022-11-14T11:19:32;101539.00;;;23.90
67501;BMP180;54349;52.528;19.760;2022-11-14T11:23:01;101529.40;;;23.90
67501;BMP180;54349;52.528;19.760;2022-11-14T11:26:00;101528.40;;;23.90
67501;BMP180;54349;52.528;19.760;2022-11-14T11:31:58;101521.40;;;23.80
67501;BMP180;54349;52.528;19.760;2022-11-14T11:34:46;101516.60;;;23.80
67501;BMP180;54349;52.528;19.760;2022-11-14T11:37:58;101517.20;;;23.80
67501;BMP180;54349;52.528;19.760;2022-11-14T11:40:52;101511.20;;;23.74
67501;BMP180;54349;52.528;19.760;2022-11-14T11:46:56;101503.40;;;23.70
67501;BMP180;54349;52.528;19.760;2022-11-14T11:49:51;101507.60;;;23.66
67501;BMP180;54349;52.528;19.760;2022-11-14T11:52:49;101505.60;;;23.60
67501;BMP180;54349;52.528;19.760;2022-11-14T11:55:45;101497.00;;;23.60
67501;BMP180;54349;52.528;19.760;2022-11-14T11:58:54;101499.80;;;23.60
67501;BMP180;54349;52.528;19.760;2022-11-14T12:01:42;101498.00;;;23.56
67501;BMP180;54349;52.528;19.760;2022-11-14T12:04:29;101497.60;;;23.50
67501;BMP180;54349;52.528;19.760;2022-11-14T12:07:29;101500.00;;;23.50
67501;BMP180;54349;52.528;19.760;2022-11-14T12:10:26;101500.40;;;23.50
67501;BMP180;54349;52.528;19.760;2022-11-14T12:17:27;101503.40;;;23.40
67501;BMP180;54349;52.528;19.760;2022-11-14T12:30:17;101496.40;;;23.30
67501;BMP180;54349;52.528;19.760;2022-11-14T12:33:16;101487.20;;;23.30
67501;BMP180;54349;52.528;19.760;2022-11-14T12:36:10;101487.80;;;23.30
67501;BMP180;54349;52.528;19.760;2022-11-14T12:38:58;101494.20;;;23.30
67501;BMP180;54349;52.528;19.760;2022-11-14T12:41:46;101492.60;;;23.28
67501;BMP180;54349;52.528;19.760;2022-11-14T12:44:37;101484.20;;;23.20
67501;BMP180;54349;52.528;19.760;2022-11-14T12:47:26;101480.80;;;23.20
67501;BMP180;54349;52.528;19.760;2022-11-14T12:50:40;101473.40;;;23.20
67501;BMP180;54349;52.528;19.760;2022-11-14T13:12:33;101456.40;;;23.10
67501;BMP180;54349;52.528;19.760;2022-11-14T13:16:05;101450.40;;;23.08
67501;BMP180;54349;52.528;19.760;2022-11-14T13:19:26;101443.80;;;23.04
67501;BMP180;54349;52.528;19.760;2022-11-14T13:22:38;101455.00;;;23.00
67501;BMP180;54349;52.528;19.760;2022-11-14T13:25:27;101460.00;;;23.00
67501;BMP180;54349;52.528;19.760;2022-11-14T13:31:41;101454.00;;;23.00
67501;BMP180;54349;52.528;19.760;2022-11-14T13:34:45;101453.80;;;23.00
67501;BMP180;54349;52.528;19.760;2022-11-14T13:48:13;101432.00;;;22.90
67501;BMP180;54349;52.528;19.760;2022-11-14T13:51:09;101433.00;;;22.90
67501;BMP180;54349;52.528;19.760;2022-11-14T13:54:19;101433.00;;;22.90
67501;BMP180;54349;52.528;19.760;2022-11-14T14:00:31;101426.60;;;22.90
67501;BMP180;54349;52.528;19.760;2022-11-14T14:03:59;101424.60;;;22.90
67501;BMP180;54349;52.528;19.760;2022-11-14T14:07:34;101422.00;;;22.90
67501;BMP180;54349;52.528;19.760;2022-11-14T14:13:58;101418.00;;;22.90
67501;BMP180;54349;52.528;19.760;2022-11-14T14:32:12;101394.80;;;22.80
67501;BMP180;54349;52.528;19.760;2022-11-14T14:35:35;101389.80;;;22.80
67501;BMP180;54349;52.528;19.760;2022-11-14T14:38:27;101389.40;;;22.80
67501;BMP180;54349;52.528;19.760;2022-11-14T14:41:18;101390.40;;;22.80
67501;BMP180;54349;52.528;19.760;2022-11-14T14:44:38;101381.60;;;22.80
67501;BMP180;54349;52.528;19.760;2022-11-14T14:47:40;101377.80;;;22.76
67501;BMP180;54349;52.528;19.760;2022-11-14T14:50:41;101375.80;;;22.70
67501;BMP180;54349;52.528;19.760;2022-11-14T14:53:52;101373.40;;;22.70
67501;BMP180;54349;52.528;19.760;2022-11-14T14:56:52;101370.60;;;22.70
67501;BMP180;54349;52.528;19.760;2022-11-14T14:59:40;101373.60;;;22.70
67501;BMP180;54349;52.528;19.760;2022-11-14T15:02:28;101377.00;;;22.70
67501;BMP180;54349;52.528;19.760;2022-11-14T15:05:24;101377.20;;;22.70
67501;BMP180;54349;52.528;19.760;2022-11-14T15:08:14;101377.60;;;22.70
67501;BMP180;54349;52.528;19.760;2022-11-14T15:11:03;101372.80;;;22.70
67501;BMP180;54349;52.528;19.760;2022-11-14T15:13:55;101370.20;;;22.70
67501;BMP180;54349;52.528;19.760;2022-11-14T15:16:45;101368.60;;;22.70
67501;BMP180;54349;52.528;19.760;2022-11-14T15:19:43;101368.20;;;22.68
67501;BMP180;54349;52.528;19.760;2022-11-14T15:22:30;101370.20;;;22.70
67501;BMP180;54349;52.528;19.760;2022-11-14T15:25:20;101362.60;;;22.66
67501;BMP180;54349;52.528;19.760;2022-11-14T15:28:20;101357.00;;;22.62
67501;BMP180;54349;52.528;19.760;2022-11-14T15:31:17;101356.60;;;22.62
67501;BMP180;54349;52.528;19.760;2022-11-14T15:34:29;101362.00;;;22.60
67501;BMP180;54349;52.528;19.760;2022-11-14T15:37:21;101355.00;;;22.60
67501;BMP180;54349;52.528;19.760;2022-11-14T15:40:20;101356.20;;;22.60
67501;BMP180;54349;52.528;19.760;2022-11-14T15:46:42;101342.80;;;22.60
67501;BMP180;54349;52.528;19.760;2022-11-14T15:49:31;101343.60;;;22.60
67501;BMP180;54349;52.528;19.760;2022-11-14T15:55:18;101343.00;;;22.60
67501;BMP180;54349;52.528;19.760;2022-11-14T15:58:11;101341.60;;;22.50
67501;BMP180;54349;52.528;19.760;2022-11-14T16:01:22;101341.20;;;22.50
67501;BMP180;54349;52.528;19.760;2022-11-14T16:04:18;101344.60;;;22.50
67501;BMP180;54349;52.528;19.760;2022-11-14T16:07:06;101341.60;;;22.50
67501;BMP180;54349;52.528;19.760;2022-11-14T16:09:55;101340.60;;;22.50
67501;BMP180;54349;52.528;19.760;2022-11-14T16:12:43;101342.20;;;22.50
67501;BMP180;54349;52.528;19.760;2022-11-14T16:15:37;101337.20;;;22.50
67501;BMP180;54349;52.528;19.760;2022-11-14T16:18:24;101329.80;;;22.50
67501;BMP180;54349;52.528;19.760;2022-11-14T16:21:16;101320.20;;;22.50
67501;BMP180;54349;52.528;19.760;2022-11-14T16:24:05;101318.20;;;22.50
67501;BMP180;54349;52.528;19.760;2022-11-14T16:26:52;101318.40;;;22.50
67501;BMP180;54349;52.528;19.760;2022-11-14T16:29:39;101316.40;;;22.50
67501;BMP180;54349;52.528;19.760;2022-11-14T16:32:26;101312.60;;;22.50
67501;BMP180;54349;52.528;19.760;2022-11-14T16:38:06;101303.40;;;22.50
67501;BMP180;54349;52.528;19.760;2022-11-14T16:40:55;101306.40;;;22.50
67501;BMP180;54349;52.528;19.760;2022-11-14T16:43:43;101299.00;;;22.50
67501;BMP180;54349;52.528;19.760;2022-11-14T16:46:32;101303.60;;;22.40
67501;BMP180;54349;52.528;19.760;2022-11-14T16:49:19;101305.40;;;22.40
67501;BMP180;54349;52.528;19.760;2022-11-14T16:52:09;101299.80;;;22.48
67501;BMP180;54349;52.528;19.760;2022-11-14T16:54:56;101300.60;;;22.48
67501;BMP180;54349;52.528;19.760;2022-11-14T16:57:43;101295.40;;;22.50
67501;BMP180;54349;52.528;19.760;2022-11-14T17:00:30;101300.00;;;22.50
67501;BMP180;54349;52.528;19.760;2022-11-14T17:03:17;101294.40;;;22.40
67501;BMP180;54349;52.528;19.760;2022-11-14T17:06:07;101291.20;;;22.40
67501;BMP180;54349;52.528;19.760;2022-11-14T17:08:56;101284.60;;;22.40
67501;BMP180;54349;52.528;19.760;2022-11-14T17:11:43;101279.20;;;22.40
67501;BMP180;54349;52.528;19.760;2022-11-14T17:14:31;101274.20;;;22.40
67501;BMP180;54349;52.528;19.760;2022-11-14T17:17:18;101271.00;;;22.40
67501;BMP180;54349;52.528;19.760;2022-11-14T17:20:06;101270.20;;;22.40
67501;BMP180;54349;52.528;19.760;2022-11-14T17:22:54;101273.80;;;22.40
67501;BMP180;54349;52.528;19.760;2022-11-14T17:25:41;101274.20;;;22.40
67501;BMP180;54349;52.528;19.760;2022-11-14T17:28:28;101273.00;;;22.44
67501;BMP180;54349;52.528;19.760;2022-11-14T17:31:16;101270.60;;;22.40
67501;BMP180;54349;52.528;19.760;2022-11-14T17:34:03;101264.60;;;22.44
67501;BMP180;54349;52.528;19.760;2022-11-14T17:36:50;101259.00;;;22.48
67501;BMP180;54349;52.528;19.760;2022-11-14T17:39:37;101269.80;;;22.50
67501;BMP180;54349;52.528;19.760;2022-11-14T17:42:23;101262.20;;;22.50
67501;BMP180;54349;52.528;19.760;2022-11-14T17:45:10;101262.40;;;22.50
67501;BMP180;54349;52.528;19.760;2022-11-14T17:47:57;101257.00;;;22.50